Flight Track Log - Related Links

Times and Time Zones

All times are in EDT time to prevent confusion due to time zone crossing. See the FLG4135 flight status page for this flight to view local times or setup timezone preferences in your user account.

Time Position Orientation Groundspeed Altitude Reporting Facility
EDT Latitude Longitude Course Direction KTS MPH feet Rate Location/Type
Mon 03:26:55 PM 42.2017 -83.3553 185° South 153 176 1,200  Level Cleveland Center
Mon 03:27:44 PM 42.1681 -83.3594 185° South 180 207 2,600 1,855 Climbing Cleveland Center
Mon 03:28:45 PM 42.1078 -83.3569 178° South 241 277 4,600 2,115 Climbing Cleveland Center
Mon 03:29:46 PM 42.0611 -83.3017 139° Southeast 286 329 6,900 2,391 Climbing Cleveland Center
Mon 03:30:58 PM 42.0953 -83.1772 70° East 324 373 9,900 1,864 Climbing Cleveland Center
Mon 03:31:58 PM 42.1372 -83.0697 62° Northeast 324 373 11,000 1,400 Climbing Cleveland Center
Mon 03:32:58 PM 42.1814 -82.9508 63° Northeast 329 379 12,700 1,800 Climbing Cleveland Center
Mon 03:33:58 PM 42.2233 -82.8403 63° Northeast 349 402 14,600 1,850 Climbing Cleveland Center
Mon 03:34:58 PM 42.2694 -82.7158 63° Northeast 359 413 16,400 1,500 Climbing Cleveland Center
Mon 03:35:58 PM 42.3178 -82.5881 63° Northeast 365 420 17,600 1,200 Climbing Cleveland Center
Mon 03:36:58 PM 42.3617 -82.4519 66° East 376 433 18,800 1,200 Climbing Cleveland Center
Mon 03:37:58 PM 42.3597 -82.3028 91° East 381 438 20,000 1,250 Climbing Cleveland Center
Mon 03:38:58 PM 42.3558 -82.1511 92° East 387 445 21,300 1,250 Climbing Cleveland Center
Mon 03:39:58 PM 42.3494 -81.9992 93° East 406 467 22,500 850 Climbing Cleveland Center
Mon 03:40:58 PM 42.3408 -81.8417 94° East 411 473 23,000 250 Climbing Cleveland Center
Mon 03:41:58 PM 42.3322 -81.6644 94° East 417 480 23,000  Level Cleveland Center
Mon 03:42:58 PM 42.3272 -81.5017 92° East 429 494 23,000  Level Cleveland Center
Mon 03:43:58 PM 42.3181 -81.3414 94° East 429 494 23,000  Level Cleveland Center
Mon 03:44:58 PM 42.3086 -81.1811 95° East 429 494 23,000  Level Cleveland Center
Mon 03:45:58 PM 42.3031 -81.0183 93° East 423 487 23,000  Level Cleveland Center
Mon 03:46:58 PM 42.3078 -80.8583 88° East 423 487 23,000  Level Cleveland Center
Mon 03:47:58 PM 42.3497 -80.7153 68° East 408 470 23,000  Level Cleveland Center
Mon 03:48:58 PM 42.3872 -80.5803 69° East 415 478 23,000  Level Cleveland Center
Mon 03:49:58 PM 42.4308 -80.4314 68° East 420 483 23,000  Level Cleveland Center
Mon 03:50:58 PM 42.4744 -80.2847 68° East 420 483 23,000  Level Cleveland Center
Mon 03:51:58 PM 42.5156 -80.1353 69° East 420 483 23,000  Level Cleveland Center
Mon 03:52:58 PM 42.5628 -79.9714 69° East 420 483 23,000  Level Cleveland Center
Mon 03:53:58 PM 42.6078 -79.8272 67° East 415 478 23,000 -6,000 Level Cleveland Center
Mon 03:54:58 PM 42.6483 -79.6772 70° East 415 478 11,000 -167 Descending Cleveland Center
Mon 03:56:58 PM 42.7311 -79.3764 69° East 415 478 22,500 3,267 Climbing Cleveland Center
Mon 03:57:58 PM 42.7753 -79.2311 67° East 415 478 20,800 -1,950 Descending Cleveland Center
Mon 03:58:58 PM 42.8131 -79.0861 70° East 410 472 18,600 -2,200 Descending Cleveland Center
Mon 03:59:58 PM 42.8489 -78.9492 70° East 404 465 16,400 -2,200 Descending Cleveland Center
Mon 04:00:58 PM 42.8844 -78.8153 70° East 396 456 14,200 -2,100 Descending Cleveland Center
Mon 04:01:58 PM 42.9178 -78.6922 70° East 388 447 12,200 -2,036 Descending Cleveland Center
Mon 04:02:50 PM 42.9450 -78.5722 73° East 345 397 10,400 -1,700 Descending Cleveland Center
Mon 04:03:58 PM 42.9717 -78.4381 75° East 317 365 8,800 -1,453 Descending Cleveland Center
Mon 04:04:58 PM 42.9867 -78.3467 77° East 290 334 7,300 -857 Descending Cleveland Center
Mon 04:06:04 PM 43.0325 -78.2342 61° Northeast 296 341 7,000 -200 Descending Cleveland Center
Mon 04:06:58 PM 43.0642 -78.1536 62° Northeast 279 321 6,900 -316 Descending Cleveland Center
Mon 04:07:58 PM 43.1017 -78.0553 62° Northeast 284 327 6,400 -1,150 Descending Cleveland Center
Mon 04:08:58 PM 43.1392 -77.9628 61° Northeast 284 327 4,600 -1,767 Descending Cleveland Center
Mon 04:10:07 PM 43.1867 -77.8553 59° Northeast 263 303 2,600 -977 Descending Cleveland Center
Mon 04:11:07 PM 43.2033 -77.7692 75° East 210 242 2,500 -50 Descending Cleveland Center
Mon 04:12:08 PM 43.2017 -77.6953 92° East 175 201 2,500 -295 Level Cleveland Center
Mon 04:13:09 PM 43.1753 -77.6481 127° Southeast 136 157 1,900 -694 Descending Cleveland Center
Mon 04:14:09 PM 43.1444 -77.6608 197° South 128 147 1,100 -800 Descending Cleveland Center
Mon 04:16:00 PM 43.1167 -77.6667 172° South  Level FlightAware Approximate

Login

Don't have an account? Register now (free) for customized features, flight alerts, and more!